createdAt,value
2018-07-04T00:02:14.228Z,13.00
2018-07-04T00:04:52.706Z,12.84
2018-07-04T00:07:31.201Z,13.10
2018-07-04T00:10:09.640Z,12.83
2018-07-04T00:12:48.146Z,12.76
2018-07-04T00:15:26.591Z,13.04
2018-07-04T00:18:05.265Z,12.94
2018-07-04T00:20:43.728Z,12.68
2018-07-04T00:23:22.207Z,12.66
2018-07-04T00:26:00.897Z,12.63
2018-07-04T00:28:39.452Z,12.56
2018-07-04T00:31:18.081Z,12.57
2018-07-04T00:33:56.635Z,12.73
2018-07-04T00:36:35.300Z,12.74
2018-07-04T00:39:13.845Z,12.87
2018-07-04T00:41:52.378Z,12.87
2018-07-04T00:44:30.857Z,12.61
2018-07-04T00:47:09.509Z,12.42
2018-07-04T00:49:47.928Z,12.59
2018-07-04T00:52:26.535Z,12.44
2018-07-04T00:55:05.173Z,12.55
2018-07-04T00:57:43.776Z,12.40
2018-07-04T01:00:22.317Z,12.39
2018-07-04T01:03:00.810Z,12.50
2018-07-04T01:05:39.349Z,12.55
2018-07-04T01:08:17.953Z,12.55
2018-07-04T01:10:56.549Z,12.60
2018-07-04T01:13:35.069Z,12.62
2018-07-04T01:16:13.699Z,12.47
2018-07-04T01:18:52.479Z,12.38
2018-07-04T01:21:31.050Z,12.20
2018-07-04T01:24:09.708Z,12.28
2018-07-04T01:26:48.212Z,12.24
2018-07-04T01:29:26.636Z,12.25
2018-07-04T01:32:05.465Z,12.24
2018-07-04T01:34:44.014Z,12.18
2018-07-04T01:37:22.500Z,12.17
2018-07-04T01:40:01.013Z,12.16
2018-07-04T01:42:39.515Z,12.16
2018-07-04T01:45:18.096Z,12.11
2018-07-04T01:47:56.728Z,12.04
2018-07-04T01:50:35.183Z,12.08
2018-07-04T01:53:13.792Z,11.96
2018-07-04T01:55:52.426Z,11.94
2018-07-04T01:58:31.049Z,11.93
2018-07-04T02:01:09.649Z,11.85
2018-07-04T02:03:48.140Z,11.75
2018-07-04T02:06:26.657Z,11.77
2018-07-04T02:09:05.264Z,11.73
2018-07-04T02:11:43.768Z,11.71
2018-07-04T02:14:22.264Z,11.77
2018-07-04T02:17:00.644Z,11.70
2018-07-04T02:19:39.086Z,11.65
2018-07-04T02:22:17.607Z,11.61
2018-07-04T02:24:56.228Z,11.53
2018-07-04T02:27:34.645Z,11.58
2018-07-04T02:30:13.144Z,11.51
2018-07-04T02:32:51.652Z,11.44
2018-07-04T02:35:30.361Z,11.42
2018-07-04T02:38:08.916Z,11.35
2018-07-04T02:40:47.452Z,11.25
2018-07-04T02:43:26.071Z,11.37
2018-07-04T02:46:04.589Z,11.42
2018-07-04T02:48:43.149Z,11.35
2018-07-04T02:51:21.656Z,11.44
2018-07-04T02:54:00.309Z,11.31
2018-07-04T02:56:38.728Z,11.35
2018-07-04T02:59:17.152Z,11.39
2018-07-04T03:01:55.640Z,11.33
2018-07-04T03:04:34.289Z,11.31
2018-07-04T03:07:12.829Z,11.33
2018-07-04T03:09:51.348Z,11.42
2018-07-04T03:12:29.864Z,11.47
2018-07-04T03:15:08.377Z,11.52
2018-07-04T03:17:46.902Z,11.48
2018-07-04T03:20:25.301Z,11.50
2018-07-04T03:23:03.735Z,11.43
2018-07-04T03:25:42.248Z,11.57
2018-07-04T03:28:20.673Z,11.56
2018-07-04T03:30:59.166Z,11.58
2018-07-04T03:33:37.912Z,11.59
2018-07-04T03:36:16.716Z,11.61
2018-07-04T03:38:55.510Z,11.70
2018-07-04T03:41:34.077Z,11.80
2018-07-04T03:44:12.595Z,11.79
2018-07-04T03:46:51.116Z,11.84
2018-07-04T03:49:29.859Z,11.84
2018-07-04T03:52:08.473Z,11.82
2018-07-04T03:54:47.107Z,11.91
2018-07-04T03:57:25.605Z,11.87
2018-07-04T04:00:03.988Z,11.78
2018-07-04T04:02:42.393Z,11.73
2018-07-04T04:05:21.212Z,11.77
2018-07-04T04:07:59.653Z,11.99
2018-07-04T04:10:38.152Z,12.17
2018-07-04T04:13:16.583Z,12.51
2018-07-04T04:15:55.121Z,12.47
2018-07-04T04:18:33.644Z,12.65
2018-07-04T04:21:12.224Z,12.78
2018-07-04T04:23:50.788Z,12.80
2018-07-04T04:26:29.322Z,12.71
2018-07-04T04:29:07.984Z,12.67
2018-07-04T04:31:46.541Z,12.76
2018-07-04T04:34:25.257Z,12.67
2018-07-04T04:37:03.932Z,12.92
2018-07-04T04:39:42.288Z,13.15
2018-07-04T04:42:20.906Z,13.23
2018-07-04T04:44:59.442Z,13.37
2018-07-04T04:47:38.014Z,13.42
2018-07-04T04:50:16.465Z,13.72
2018-07-04T04:52:55.063Z,13.62
2018-07-04T04:55:33.516Z,13.95
2018-07-04T04:58:12.177Z,14.33
2018-07-04T05:00:50.836Z,14.29
2018-07-04T05:03:29.601Z,14.02
2018-07-04T05:06:07.996Z,13.86
2018-07-04T05:08:46.604Z,14.31
2018-07-04T05:11:25.101Z,14.56
2018-07-04T05:14:03.758Z,14.41
2018-07-04T05:16:42.217Z,14.31
2018-07-04T05:19:20.696Z,14.42
2018-07-04T05:21:59.220Z,14.49
2018-07-04T05:24:37.716Z,14.48
2018-07-04T05:27:16.113Z,14.38
2018-07-04T05:29:54.672Z,14.54
2018-07-04T05:32:33.339Z,14.56
2018-07-04T05:35:11.807Z,14.72
2018-07-04T05:37:50.335Z,14.84
2018-07-04T05:40:28.909Z,15.19
2018-07-04T05:43:07.580Z,15.33
2018-07-04T05:45:46.064Z,15.36
2018-07-04T05:48:24.587Z,15.45
2018-07-04T05:51:03.127Z,15.37
2018-07-04T05:53:41.712Z,15.55
2018-07-04T05:56:20.246Z,15.68
2018-07-04T05:58:58.739Z,16.00
2018-07-04T06:01:37.296Z,16.19
2018-07-04T06:04:15.930Z,15.86
2018-07-04T06:06:54.538Z,15.88
2018-07-04T06:09:33.117Z,16.02
2018-07-04T06:12:11.668Z,15.97
2018-07-04T06:14:50.397Z,16.05
2018-07-04T06:17:29.096Z,16.30
2018-07-04T06:20:08.172Z,16.50
2018-07-04T06:22:46.600Z,16.62
2018-07-04T06:25:25.224Z,16.97
2018-07-04T06:28:03.788Z,16.77
2018-07-04T06:30:42.316Z,16.15
2018-07-04T06:33:20.837Z,16.70
2018-07-04T06:35:59.257Z,16.90
2018-07-04T06:38:25.264Z,16.90
2018-07-04T06:40:51.305Z,16.95
2018-07-04T06:43:17.331Z,16.60
2018-07-04T06:45:43.401Z,16.45
2018-07-04T06:48:09.436Z,16.66
2018-07-04T06:50:35.483Z,17.07
2018-07-04T06:53:01.516Z,17.36
2018-07-04T06:55:27.541Z,17.41
2018-07-04T06:57:53.586Z,18.02
2018-07-04T07:00:19.608Z,17.91
2018-07-04T07:02:45.641Z,18.47
2018-07-04T07:05:24.301Z,18.70
2018-07-04T07:08:02.741Z,18.11
2018-07-04T07:10:41.164Z,18.08
2018-07-04T07:13:19.689Z,18.08
2018-07-04T07:15:58.304Z,18.38
2018-07-04T07:18:36.817Z,18.70
2018-07-04T07:21:15.246Z,19.36
2018-07-04T07:23:53.864Z,19.41
2018-07-04T07:26:32.405Z,19.84
2018-07-04T07:29:10.871Z,19.70
2018-07-04T07:31:49.435Z,19.41
2018-07-04T07:34:28.065Z,18.77
2018-07-04T07:37:06.545Z,18.42
2018-07-04T07:39:44.992Z,18.47
2018-07-04T07:42:23.468Z,19.39
2018-07-04T07:45:02.030Z,19.39
2018-07-04T07:47:40.445Z,20.22
2018-07-04T07:50:18.954Z,20.13
2018-07-04T07:52:57.516Z,19.36
2018-07-04T07:55:36.273Z,19.16
2018-07-04T07:58:14.935Z,19.43
2018-07-04T08:00:53.539Z,19.05
2018-07-04T08:03:31.984Z,18.54
2018-07-04T08:06:11.476Z,19.25
2018-07-04T08:08:50.098Z,19.40
2018-07-04T08:11:28.708Z,20.04
2018-07-04T08:14:07.301Z,19.96
2018-07-04T08:16:45.884Z,19.10
2018-07-04T08:19:24.418Z,18.91
2018-07-04T08:22:03.072Z,19.53
2018-07-04T08:24:41.598Z,20.01
2018-07-04T08:27:20.249Z,19.85
2018-07-04T08:29:58.707Z,20.07
2018-07-04T08:32:37.179Z,19.21
2018-07-04T08:35:15.680Z,20.06
2018-07-04T08:37:54.156Z,20.42
2018-07-04T08:40:32.860Z,20.24
2018-07-04T08:43:11.596Z,18.95
2018-07-04T08:45:50.649Z,19.53
2018-07-04T08:48:29.295Z,20.26
2018-07-04T08:51:07.880Z,20.44
2018-07-04T08:53:46.428Z,19.98
2018-07-04T08:56:24.900Z,20.54
2018-07-04T08:59:03.428Z,20.97
2018-07-04T09:01:41.840Z,21.03
2018-07-04T09:04:20.481Z,21.37
2018-07-04T09:06:59.049Z,20.40
2018-07-04T09:09:37.789Z,20.90
2018-07-04T09:12:16.420Z,21.57
2018-07-04T09:14:54.941Z,20.95
2018-07-04T09:17:33.564Z,21.20
2018-07-04T09:20:12.092Z,21.34
2018-07-04T09:22:50.808Z,21.36
2018-07-04T09:25:29.352Z,20.38
2018-07-04T09:28:07.941Z,19.47
2018-07-04T09:30:46.317Z,19.40
2018-07-04T09:33:24.888Z,19.98
2018-07-04T09:36:03.428Z,20.81
2018-07-04T09:38:42.007Z,20.89
2018-07-04T09:41:20.512Z,20.87
2018-07-04T09:43:59.021Z,20.91
2018-07-04T09:46:37.556Z,21.18
2018-07-04T09:49:16.081Z,22.20
2018-07-04T09:51:54.554Z,21.92
2018-07-04T09:54:33.156Z,21.41
2018-07-04T09:57:11.736Z,21.96
2018-07-04T09:59:50.189Z,22.51
2018-07-04T10:02:28.775Z,22.31
2018-07-04T10:05:07.556Z,21.31
2018-07-04T10:07:46.233Z,21.37
2018-07-04T10:10:24.813Z,21.10
2018-07-04T10:13:03.253Z,21.38
2018-07-04T10:15:41.759Z,21.71
2018-07-04T10:18:20.392Z,21.82
2018-07-04T10:20:59.032Z,21.13
2018-07-04T10:23:37.529Z,21.97
2018-07-04T10:26:16.005Z,21.87
2018-07-04T10:28:54.545Z,22.77
2018-07-04T10:31:32.948Z,22.35
2018-07-04T10:34:11.547Z,22.47
2018-07-04T10:36:50.049Z,21.97
2018-07-04T10:39:28.552Z,23.21
2018-07-04T10:42:07.091Z,23.35
2018-07-04T10:44:45.559Z,21.05
2018-07-04T10:47:23.990Z,21.43
2018-07-04T10:50:02.386Z,22.34
2018-07-04T10:52:40.885Z,22.23
2018-07-04T10:55:19.465Z,21.98
2018-07-04T10:57:57.812Z,22.18
2018-07-04T11:00:36.357Z,22.91
2018-07-04T11:03:14.904Z,23.23
2018-07-04T11:05:53.945Z,22.90
2018-07-04T11:08:32.444Z,22.91
2018-07-04T11:11:11.121Z,22.21
2018-07-04T11:13:49.825Z,22.04
2018-07-04T11:16:28.286Z,22.75
2018-07-04T11:19:06.805Z,23.00
2018-07-04T11:21:45.286Z,23.06
2018-07-04T11:24:23.861Z,23.02
2018-07-04T11:27:02.408Z,23.17
2018-07-04T11:29:40.781Z,22.86
2018-07-04T11:32:19.408Z,22.83
2018-07-04T11:34:57.937Z,23.62
2018-07-04T11:37:36.446Z,23.67
2018-07-04T11:40:14.981Z,22.90
2018-07-04T11:42:53.717Z,22.42
2018-07-04T11:45:32.265Z,23.38
2018-07-04T11:47:58.319Z,23.47
2018-07-04T11:50:24.343Z,23.30
2018-07-04T11:52:50.369Z,23.30
2018-07-04T11:55:16.411Z,23.45
2018-07-04T11:57:42.433Z,23.19
2018-07-04T12:00:08.464Z,23.31
2018-07-04T12:02:34.485Z,23.49
2018-07-04T12:05:13.134Z,23.46
2018-07-04T12:07:39.145Z,23.33
2018-07-04T12:10:05.174Z,23.86
2018-07-04T12:12:31.188Z,23.83
2018-07-04T12:14:57.224Z,23.88
2018-07-04T12:17:23.251Z,23.80
2018-07-04T12:19:49.280Z,23.94
2018-07-04T12:22:15.303Z,24.21
2018-07-04T12:24:41.329Z,23.89
2018-07-04T12:27:07.342Z,23.71
2018-07-04T12:29:33.372Z,23.55
2018-07-04T12:31:59.428Z,23.59
2018-07-04T12:34:25.455Z,24.06
2018-07-04T12:36:51.477Z,24.16
2018-07-04T12:39:17.500Z,24.22
2018-07-04T12:41:43.532Z,24.19
2018-07-04T12:44:09.563Z,23.65
2018-07-04T12:46:35.603Z,23.98
2018-07-04T12:49:02.704Z,24.87
2018-07-04T12:51:30.284Z,23.88
2018-07-04T12:55:01.786Z,23.61
2018-07-04T12:57:40.382Z,24.31
2018-07-04T13:00:18.872Z,24.00
2018-07-04T13:02:57.356Z,24.40
2018-07-04T13:05:35.804Z,25.03
2018-07-04T13:08:14.320Z,24.33
2018-07-04T13:10:52.910Z,24.45
2018-07-04T13:13:31.541Z,24.38
2018-07-04T13:16:09.922Z,24.30
2018-07-04T13:18:48.571Z,23.85
2018-07-04T13:21:27.208Z,24.26
2018-07-04T13:24:05.757Z,23.77
2018-07-04T13:26:44.285Z,24.26
2018-07-04T13:29:22.916Z,25.00
2018-07-04T13:32:01.468Z,24.71
2018-07-04T13:34:39.977Z,24.81
2018-07-04T13:37:18.525Z,25.00
2018-07-04T13:39:57.033Z,24.99
2018-07-04T13:42:35.542Z,24.31
2018-07-04T13:45:13.928Z,25.22
2018-07-04T13:47:52.496Z,25.44
2018-07-04T13:50:31.013Z,25.08
2018-07-04T13:53:09.504Z,24.42
2018-07-04T13:55:47.917Z,25.27
2018-07-04T13:58:26.448Z,25.82
2018-07-04T14:01:04.926Z,26.16
2018-07-04T14:03:43.644Z,25.18
2018-07-04T14:06:23.173Z,25.33
2018-07-04T14:09:01.668Z,25.43
2018-07-04T14:11:40.249Z,24.96
2018-07-04T14:14:18.947Z,25.15
2018-07-04T14:16:57.740Z,25.44
2018-07-04T14:19:36.264Z,25.58
2018-07-04T14:22:14.932Z,24.92
2018-07-04T14:24:53.371Z,25.83
2018-07-04T14:27:31.837Z,25.81
2018-07-04T14:30:10.315Z,25.79
2018-07-04T14:32:49.073Z,25.96
2018-07-04T14:35:27.516Z,26.41
2018-07-04T14:38:06.005Z,26.58
2018-07-04T14:40:44.599Z,26.12
2018-07-04T14:43:23.117Z,26.25
2018-07-04T14:46:01.629Z,26.32
2018-07-04T14:48:40.269Z,25.39
2018-07-04T14:51:18.956Z,24.40
2018-07-04T14:53:57.621Z,24.37
2018-07-04T14:56:36.212Z,24.30
2018-07-04T14:59:14.711Z,24.40
2018-07-04T15:01:53.269Z,24.05
2018-07-04T15:04:31.937Z,24.34
2018-07-04T15:07:10.492Z,24.34
2018-07-04T15:09:49.096Z,24.00
2018-07-04T15:12:27.745Z,23.83
2018-07-04T15:15:06.160Z,23.66
2018-07-04T15:17:44.708Z,23.82
2018-07-04T15:20:23.442Z,24.21
2018-07-04T15:23:01.878Z,24.45
2018-07-04T15:25:40.380Z,24.08
2018-07-04T15:28:19.079Z,23.96
2018-07-04T15:30:57.775Z,24.31
2018-07-04T15:33:36.357Z,24.91
2018-07-04T15:36:14.905Z,25.07
2018-07-04T15:38:53.873Z,24.54
2018-07-04T15:41:32.454Z,24.30
2018-07-04T15:44:11.060Z,24.18
2018-07-04T15:46:49.686Z,23.95
2018-07-04T15:49:28.264Z,24.24
2018-07-04T15:52:06.800Z,23.99
2018-07-04T15:54:45.294Z,23.76
2018-07-04T15:57:23.814Z,24.13
2018-07-04T16:00:02.415Z,24.09
2018-07-04T16:02:41.048Z,24.02
2018-07-04T16:05:19.544Z,23.82
2018-07-04T16:07:58.101Z,23.63
2018-07-04T16:10:36.560Z,23.90
2018-07-04T16:13:15.084Z,24.00
2018-07-04T16:15:53.621Z,23.74
2018-07-04T16:18:32.148Z,23.93
2018-07-04T16:21:10.649Z,23.62
2018-07-04T16:23:49.089Z,23.27
2018-07-04T16:26:27.468Z,23.51
2018-07-04T16:29:06.051Z,23.50
2018-07-04T16:31:44.549Z,23.65
2018-07-04T16:34:23.137Z,23.56
2018-07-04T16:37:01.560Z,23.52
2018-07-04T16:39:40.199Z,23.28
2018-07-04T16:42:18.703Z,23.43
2018-07-04T16:44:57.852Z,23.38
2018-07-04T16:47:36.345Z,23.44
2018-07-04T16:50:14.941Z,23.49
2018-07-04T16:52:53.484Z,23.21
2018-07-04T16:55:31.972Z,23.07
2018-07-04T16:58:10.417Z,22.89
2018-07-04T17:00:48.930Z,23.06
2018-07-04T17:03:27.464Z,23.30
2018-07-04T17:06:06.800Z,23.16
2018-07-04T17:08:45.276Z,23.34
2018-07-04T17:11:23.949Z,23.21
2018-07-04T17:14:02.456Z,23.21
2018-07-04T17:16:40.861Z,22.97
2018-07-04T17:19:19.385Z,23.13
2018-07-04T17:21:58.032Z,23.08
2018-07-04T17:24:36.649Z,23.14
2018-07-04T17:27:15.214Z,22.64
2018-07-04T17:29:53.862Z,22.83
2018-07-04T17:32:32.478Z,22.70
2018-07-04T17:35:11.021Z,22.80
2018-07-04T17:37:49.520Z,22.62
2018-07-04T17:40:28.073Z,22.42
2018-07-04T17:43:06.613Z,22.28
2018-07-04T17:45:45.072Z,22.52
2018-07-04T17:48:23.709Z,22.13
2018-07-04T17:51:02.231Z,22.12
2018-07-04T17:53:40.732Z,22.38
2018-07-04T17:56:19.209Z,22.16
2018-07-04T17:58:57.756Z,22.31
2018-07-04T18:01:36.407Z,22.24
2018-07-04T18:04:15.164Z,22.33
2018-07-04T18:06:53.743Z,21.80
2018-07-04T18:09:32.271Z,21.82
2018-07-04T18:12:10.956Z,21.70
2018-07-04T18:14:49.368Z,21.73
2018-07-04T18:17:27.846Z,21.85
2018-07-04T18:20:06.402Z,21.61
2018-07-04T18:22:44.881Z,21.51
2018-07-04T18:25:23.466Z,21.63
2018-07-04T18:28:01.965Z,21.39
2018-07-04T18:30:40.480Z,21.28
2018-07-04T18:33:18.993Z,21.37
2018-07-04T18:35:57.618Z,21.22
2018-07-04T18:38:36.264Z,21.23
2018-07-04T18:41:14.686Z,21.00
2018-07-04T18:43:53.089Z,20.95
2018-07-04T18:46:31.521Z,20.84
2018-07-04T18:49:10.261Z,20.67
2018-07-04T18:51:48.760Z,20.56
2018-07-04T18:54:27.380Z,20.47
2018-07-04T18:57:05.966Z,20.48
2018-07-04T18:59:44.313Z,20.41
2018-07-04T19:02:22.767Z,20.43
2018-07-04T19:05:01.422Z,20.37
2018-07-04T19:07:40.069Z,20.10
2018-07-04T19:10:18.621Z,19.98
2018-07-04T19:12:57.113Z,19.91
2018-07-04T19:15:35.692Z,19.84
2018-07-04T19:18:14.089Z,19.67
2018-07-04T19:20:52.705Z,19.53
2018-07-04T19:23:31.404Z,19.39
2018-07-04T19:26:09.914Z,19.36
2018-07-04T19:28:48.468Z,19.34
2018-07-04T19:31:26.957Z,19.18
2018-07-04T19:34:05.355Z,19.12
2018-07-04T19:36:43.732Z,18.91
2018-07-04T19:39:22.128Z,18.77
2018-07-04T19:42:00.737Z,18.67
2018-07-04T19:44:39.148Z,18.52
2018-07-04T19:47:17.617Z,18.36
2018-07-04T19:49:56.041Z,18.32
2018-07-04T19:52:34.669Z,18.21
2018-07-04T19:55:13.092Z,18.10
2018-07-04T19:57:51.590Z,17.88
2018-07-04T20:00:30.136Z,17.85
2018-07-04T20:03:08.669Z,17.68
2018-07-04T20:05:47.164Z,17.48
2018-07-04T20:08:25.843Z,17.43
2018-07-04T20:11:04.308Z,17.34
2018-07-04T20:13:42.833Z,17.27
2018-07-04T20:16:21.623Z,16.97
2018-07-04T20:19:00.180Z,16.99
2018-07-04T20:21:38.739Z,16.85
2018-07-04T20:24:17.265Z,16.78
2018-07-04T20:26:55.897Z,16.84
2018-07-04T20:29:34.396Z,16.70
2018-07-04T20:32:12.976Z,16.62
2018-07-04T20:34:51.485Z,16.54
2018-07-04T20:37:30.023Z,16.47
2018-07-04T20:40:08.546Z,16.45
2018-07-04T20:42:47.087Z,16.36
2018-07-04T20:45:25.593Z,16.28
2018-07-04T20:48:04.105Z,16.25
2018-07-04T20:50:42.592Z,16.26
2018-07-04T20:53:20.904Z,16.17
2018-07-04T20:55:59.329Z,16.10
2018-07-04T20:58:37.947Z,16.07
2018-07-04T21:01:16.336Z,16.05
2018-07-04T21:03:54.837Z,15.96
2018-07-04T21:06:33.449Z,15.92
2018-07-04T21:09:11.893Z,15.92
2018-07-04T21:11:50.737Z,15.99
2018-07-04T21:14:29.237Z,15.91
2018-07-04T21:17:07.773Z,15.85
2018-07-04T21:19:46.312Z,15.76
2018-07-04T21:22:24.915Z,15.81
2018-07-04T21:25:03.521Z,15.78
2018-07-04T21:27:42.046Z,15.74
2018-07-04T21:30:20.581Z,15.71
2018-07-04T21:32:59.220Z,15.64
2018-07-04T21:35:37.694Z,15.60
2018-07-04T21:38:16.241Z,15.55
2018-07-04T21:40:54.648Z,15.54
2018-07-04T21:43:33.230Z,15.56
2018-07-04T21:46:11.921Z,15.51
2018-07-04T21:48:50.404Z,15.42
2018-07-04T21:51:28.937Z,15.46
2018-07-04T21:54:07.422Z,15.41
2018-07-04T21:56:45.931Z,15.41
2018-07-04T21:59:24.389Z,15.41
2018-07-04T22:02:03.016Z,15.38
2018-07-04T22:04:41.689Z,15.29
2018-07-04T22:07:20.257Z,15.27
2018-07-04T22:09:58.692Z,15.33
2018-07-04T22:12:37.196Z,15.27
2018-07-04T22:15:15.776Z,15.18
2018-07-04T22:17:54.321Z,15.11
2018-07-04T22:20:32.869Z,15.08
2018-07-04T22:23:11.452Z,15.09
2018-07-04T22:25:49.857Z,15.06
2018-07-04T22:28:28.408Z,15.01
2018-07-04T22:31:06.892Z,14.99
2018-07-04T22:33:45.401Z,14.95
2018-07-04T22:36:23.904Z,14.88
2018-07-04T22:39:03.918Z,14.89
2018-07-04T22:41:42.478Z,14.88
2018-07-04T22:44:21.069Z,14.91
2018-07-04T22:46:59.611Z,14.80
2018-07-04T22:49:38.171Z,14.87
2018-07-04T22:52:16.676Z,14.85
2018-07-04T22:54:55.127Z,14.85
2018-07-04T22:57:33.557Z,14.90
2018-07-04T23:00:12.017Z,15.03
2018-07-04T23:02:50.558Z,14.92
2018-07-04T23:05:29.049Z,14.89
2018-07-04T23:08:07.468Z,14.90
2018-07-04T23:10:45.932Z,14.92
2018-07-04T23:13:24.380Z,14.93
2018-07-04T23:16:02.855Z,14.97
2018-07-04T23:18:41.440Z,15.00
2018-07-04T23:21:20.050Z,15.14
2018-07-04T23:23:58.620Z,15.16
2018-07-04T23:26:37.183Z,15.06
2018-07-04T23:29:15.737Z,15.15
2018-07-04T23:31:54.317Z,15.21
2018-07-04T23:34:32.998Z,15.07
2018-07-04T23:37:11.697Z,14.94
2018-07-04T23:39:50.200Z,14.86
2018-07-04T23:42:28.720Z,15.00
2018-07-04T23:45:07.256Z,15.07
2018-07-04T23:47:45.901Z,15.01
2018-07-04T23:50:24.632Z,14.99
2018-07-04T23:53:03.176Z,14.99
2018-07-04T23:55:41.743Z,14.99
2018-07-04T23:58:20.246Z,14.97
